createdAt,value
2023-03-04T00:01:33.846Z,22.5
2023-03-04T00:07:26.483Z,22.1
2023-03-04T00:13:19.542Z,21.5
2023-03-04T00:18:59.233Z,21.2
2023-03-04T00:30:29.608Z,20.9
2023-03-04T00:36:22.611Z,21.8
2023-03-04T00:41:59.753Z,22.7
2023-03-04T00:47:22.296Z,21.9
2023-03-04T00:53:14.321Z,21.5
2023-03-04T00:58:50.667Z,21.2
2023-03-04T01:04:28.383Z,21
2023-03-04T01:10:05.920Z,20.8
2023-03-04T01:15:43.252Z,21.9
2023-03-04T01:21:04.692Z,22.8
2023-03-04T01:26:42.187Z,22
2023-03-04T01:32:19.860Z,21.5
2023-03-04T01:43:18.664Z,21.1
2023-03-04T01:48:44.065Z,20.9
2023-03-04T01:54:05.736Z,21.8
2023-03-04T01:59:27.636Z,22.5
2023-03-04T02:04:49.792Z,22.1
2023-03-04T02:10:27.155Z,21.6
2023-03-04T02:20:56.691Z,21
2023-03-04T02:26:33.411Z,20.9
2023-03-04T02:32:11.426Z,20.8
2023-03-04T02:37:48.522Z,21.8
2023-03-04T02:43:25.557Z,22.4
2023-03-04T02:49:02.255Z,22.1
2023-03-04T02:54:39.148Z,21.5
2023-03-04T03:05:38.632Z,21
2023-03-04T03:11:16.761Z,20.9
2023-03-04T03:16:40.269Z,21
2023-03-04T03:22:17.621Z,22.1
2023-03-04T03:27:54.472Z,22.6
2023-03-04T03:33:31.868Z,21.9
2023-03-04T03:39:09.821Z,21.4
2023-03-04T03:49:54.074Z,21
2023-03-04T03:55:32.010Z,20.9
2023-03-04T04:01:09.192Z,21.3
2023-03-04T04:06:47.417Z,22.3
2023-03-04T04:12:24.551Z,22.4
2023-03-04T04:18:01.798Z,21.7
2023-03-04T04:23:27.263Z,21.3
2023-03-04T04:29:04.971Z,21.1
2023-03-04T04:34:11.296Z,20.8
2023-03-04T04:39:48.204Z,20.7
2023-03-04T04:45:10.812Z,21.6
2023-03-04T04:50:49.649Z,22.3
2023-03-04T04:56:41.909Z,22.3
2023-03-04T05:02:18.602Z,21.6
2023-03-04T05:07:56.395Z,21.2
2023-03-04T05:13:33.536Z,20.9
2023-03-04T05:19:26.061Z,20.8
2023-03-04T05:25:02.944Z,20.7
2023-03-04T05:30:39.889Z,21.7
2023-03-04T05:36:18.566Z,23.3
2023-03-04T05:41:55.721Z,22.3
2023-03-04T05:47:32.407Z,21.4
2023-03-04T05:53:24.950Z,21.1
2023-03-04T05:59:17.615Z,20.8
2023-03-04T06:05:10.576Z,20.7
2023-03-04T06:10:47.716Z,21.2
2023-03-04T06:16:40.642Z,22.3
2023-03-04T06:22:32.794Z,22.4
2023-03-04T06:28:28.021Z,21.5
2023-03-04T06:34:05.400Z,21.1
2023-03-04T06:39:58.208Z,20.8
2023-03-04T06:45:51.918Z,20.6
2023-03-04T06:51:28.897Z,20.6
2023-03-04T06:57:21.785Z,21.9
2023-03-04T07:03:13.939Z,22.4
2023-03-04T07:09:05.946Z,21.8
2023-03-04T07:14:58.449Z,21.3
2023-03-04T07:20:52.378Z,21
2023-03-04T07:26:44.467Z,20.9
2023-03-04T07:32:37.358Z,20.8
2023-03-04T07:38:29.735Z,21.7
2023-03-04T07:44:22.403Z,22.8
2023-03-04T07:50:17.607Z,22.1
2023-03-04T07:56:10.797Z,21.6
2023-03-04T08:02:02.828Z,21.3
2023-03-04T08:07:55.451Z,21.6
2023-03-04T08:13:48.118Z,22.6
2023-03-04T08:19:42.572Z,22.3
2023-03-04T08:25:19.862Z,21.6
2023-03-04T08:30:56.539Z,21.4
2023-03-04T08:36:53.200Z,21.6
2023-03-04T08:42:32.625Z,22.8
2023-03-04T08:48:25.791Z,22.3
2023-03-04T08:54:19.311Z,21.6
2023-03-04T09:00:11.778Z,21.4
2023-03-04T09:06:04.170Z,21.8
2023-03-04T09:11:56.672Z,22.8
2023-03-04T09:17:59.267Z,22.2
2023-03-04T09:23:52.830Z,21.6
2023-03-04T09:29:45.684Z,21.4
2023-03-04T09:35:38.534Z,21.8
2023-03-04T09:41:15.610Z,23
2023-03-04T09:47:09.055Z,22.2
2023-03-04T09:53:04.418Z,21.7
2023-03-04T09:59:01.376Z,21.4
2023-03-04T10:04:54.789Z,21.5
2023-03-04T10:10:47.006Z,22.7
2023-03-04T10:16:40.453Z,22.4
2023-03-04T10:22:33.710Z,21.6
2023-03-04T10:34:06.777Z,20.8
2023-03-04T10:39:59.256Z,21.5
2023-03-04T10:45:51.949Z,22.1
2023-03-04T10:51:45.578Z,21.4
2023-03-04T11:03:17.114Z,20.9
2023-03-04T11:09:19.961Z,20.8
2023-03-04T11:15:12.246Z,20.6
2023-03-04T11:21:04.152Z,20.9
2023-03-04T11:27:13.276Z,22
2023-03-04T11:33:06.401Z,21.4
2023-03-04T11:38:59.390Z,21.2
2023-03-04T11:44:52.785Z,20.8
2023-03-04T11:51:02.305Z,20.8
2023-03-04T11:56:55.196Z,20.6
2023-03-04T12:02:49.566Z,20.8
2023-03-04T12:08:43.241Z,22
2023-03-04T12:14:23.007Z,21.6
2023-03-04T12:20:15.884Z,21.3
2023-03-04T12:31:51.023Z,20.9
2023-03-04T12:37:29.137Z,20.9
2023-03-04T12:43:06.193Z,20.7
2023-03-04T12:48:59.364Z,21.6
2023-03-04T12:54:54.177Z,22.1
2023-03-04T13:00:47.042Z,21.4
2023-03-04T13:12:03.388Z,21
2023-03-04T13:23:38.292Z,22.1
2023-03-04T13:29:32.650Z,21.6
2023-03-04T13:35:27.874Z,21.4
2023-03-04T13:47:01.796Z,21.1
2023-03-04T13:53:07.717Z,21.1
2023-03-04T13:59:04.487Z,20.8
2023-03-04T14:04:58.202Z,21.8
2023-03-04T14:10:36.616Z,22.3
2023-03-04T14:16:29.147Z,21.6
2023-03-04T14:22:22.826Z,21.3
2023-03-04T14:34:03.403Z,22.1
2023-03-04T14:39:55.221Z,21.9
2023-03-04T14:45:47.086Z,21.3
2023-03-04T14:51:52.900Z,21.3
2023-03-04T14:57:44.710Z,21.4
2023-03-04T15:03:38.288Z,22.1
2023-03-04T15:09:31.281Z,21.4
2023-03-04T15:15:24.009Z,21.2
2023-03-04T15:26:54.182Z,20.9
2023-03-04T15:32:48.625Z,20.8
2023-03-04T15:38:41.051Z,20.6
2023-03-04T15:44:32.864Z,20.5
2023-03-04T15:50:13.270Z,20.4
2023-03-04T15:55:51.705Z,20.8
2023-03-04T16:01:44.358Z,22.4
2023-03-04T16:07:37.016Z,23.5
2023-03-04T16:13:29.388Z,24.1
2023-03-04T16:19:21.952Z,24.6
2023-03-04T16:25:14.361Z,24.7
2023-03-04T16:31:07.236Z,25.8
2023-03-04T16:36:46.838Z,26.9
2023-03-04T16:42:39.522Z,27.5
2023-03-04T16:48:17.043Z,27.9
2023-03-04T16:54:11.528Z,28.1
2023-03-04T17:00:03.905Z,29.3
2023-03-04T17:05:59.455Z,31.6
2023-03-04T17:11:36.652Z,30.8
2023-03-04T17:17:14.043Z,29.9
2023-03-04T17:23:05.555Z,29.8
2023-03-04T17:28:58.546Z,29.4
2023-03-04T17:34:35.854Z,29.6
2023-03-04T17:40:12.651Z,29.1
2023-03-04T17:46:05.487Z,30.2
2023-03-04T17:51:42.322Z,28.4
2023-03-04T17:57:34.087Z,29.1
2023-03-04T18:03:11.389Z,29.2
2023-03-04T18:08:48.355Z,29.9
2023-03-04T18:14:41.288Z,29.1
2023-03-04T18:20:17.540Z,29.6
2023-03-04T18:25:38.820Z,29
2023-03-04T18:31:15.671Z,28.7
2023-03-04T18:37:05.586Z,29.6
2023-03-04T18:42:58.030Z,29.3
2023-03-04T18:48:51.076Z,29
2023-03-04T18:54:43.913Z,29.5
2023-03-04T19:00:36.072Z,29.5
2023-03-04T19:06:28.605Z,29.7
2023-03-04T19:12:05.106Z,29.8
2023-03-04T19:17:44.165Z,29.3
2023-03-04T19:23:21.254Z,29.9
2023-03-04T19:28:58.445Z,29.6
2023-03-04T19:34:51.074Z,30
2023-03-04T19:40:12.365Z,30.1
2023-03-04T19:45:34.879Z,30.3
2023-03-04T19:51:11.983Z,30.4
2023-03-04T19:56:49.336Z,30
2023-03-04T20:02:26.974Z,29.5
2023-03-04T20:07:48.315Z,28.8
2023-03-04T20:13:05.409Z,29.3
2023-03-04T20:18:43.269Z,29.1
2023-03-04T20:24:05.165Z,28.4
2023-03-04T20:29:42.592Z,29.3
2023-03-04T20:35:20.948Z,28.6
2023-03-04T20:41:09.389Z,28.9
2023-03-04T20:47:01.838Z,29.1
2023-03-04T20:52:38.372Z,29.3
2023-03-04T20:57:44.759Z,28.8
2023-03-04T21:03:21.841Z,28.6
2023-03-04T21:09:14.251Z,28.1
2023-03-04T21:15:07.491Z,27.9
2023-03-04T21:21:00.767Z,27.6
2023-03-04T21:26:56.836Z,27.3
2023-03-04T21:32:47.113Z,27.1
2023-03-04T21:38:26.100Z,26.9
2023-03-04T21:44:02.758Z,26.5
2023-03-04T21:49:56.573Z,26.3
2023-03-04T21:55:34.297Z,26.1
2023-03-04T22:00:57.298Z,25.9
2023-03-04T22:06:49.271Z,25.8
2023-03-04T22:12:26.346Z,25.6
2023-03-04T22:18:00.271Z,25.4
2023-03-04T22:23:22.421Z,25.4
2023-03-04T22:28:59.347Z,25.2
2023-03-04T22:34:07.537Z,25.1
2023-03-04T22:39:28.793Z,24.9
2023-03-04T22:44:50.704Z,24.8
2023-03-04T22:50:12.724Z,24.5
2023-03-04T22:55:49.931Z,24
2023-03-04T23:01:42.487Z,23.3
2023-03-04T23:07:34.697Z,23.1
2023-03-04T23:13:27.393Z,24.1
2023-03-04T23:19:20.172Z,24.1
2023-03-04T23:24:57.215Z,23.3
2023-03-04T23:30:50.819Z,22.9
2023-03-04T23:36:43.499Z,22.6
2023-03-04T23:42:36.044Z,22.4
2023-03-04T23:48:29.015Z,22.3
2023-03-04T23:54:06.423Z,22.1
2023-03-04T23:59:43.588Z,22.4
